LEV weather

Levuka Airfield
Bureta, Eastern, Fiji

Public forecast

Using degrees Celsius for public forecast. Weather courtesy of forecast.io.

METAR (pilot weather report)

Closest report is Nausori International Airport, 23.0 nm (42.6 km) SSW. Retrieved 2019/07/21 20:00 UTC (15 minutes ago):

NFNA 212000Z 19003KT 9999 FEW020 22/15 Q1013

TAF (pilot weather forecast)

Closest forecast is Nausori International Airport, 23.0 nm (42.6 km) SSW. Retrieved 2019/07/21 18:00 UTC (2 hours ago):

TAF NFNA 211702Z 2118/2218 17009KT 9999 SCT020 SCT045